createdAt,value
2023-04-18T00:00:27.021Z,19.87
2023-04-18T00:02:55.103Z,19.87
2023-04-18T00:05:21.971Z,19.87
2023-04-18T00:07:48.506Z,19.85
2023-04-18T00:10:15.106Z,19.85
2023-04-18T00:12:41.503Z,19.85
2023-04-18T00:15:08.983Z,19.86
2023-04-18T00:17:35.848Z,19.87
2023-04-18T00:20:07.348Z,19.86
2023-04-18T00:22:33.789Z,19.86
2023-04-18T00:25:00.341Z,19.87
2023-04-18T00:27:26.874Z,19.87
2023-04-18T00:29:53.334Z,19.87
2023-04-18T00:32:19.866Z,19.87
2023-04-18T00:34:46.405Z,19.89
2023-04-18T00:37:12.818Z,19.87
2023-04-18T00:39:39.226Z,19.86
2023-04-18T00:42:05.889Z,19.85
2023-04-18T00:44:32.372Z,19.86
2023-04-18T00:46:58.877Z,19.86
2023-04-18T00:49:25.742Z,19.85
2023-04-18T00:51:53.425Z,19.82
2023-04-18T00:54:20.066Z,19.83
2023-04-18T00:56:46.920Z,19.84
2023-04-18T00:59:13.534Z,19.86
2023-04-18T01:01:40.343Z,19.86
2023-04-18T01:04:08.140Z,19.86
2023-04-18T01:06:35.290Z,19.86
2023-04-18T01:09:02.324Z,19.87
2023-04-18T01:11:28.744Z,19.89
2023-04-18T01:14:01.854Z,19.90
2023-04-18T01:16:34.410Z,19.88
2023-04-18T01:19:01.673Z,19.86
2023-04-18T01:21:31.248Z,19.86
2023-04-18T01:24:01.800Z,19.86
2023-04-18T01:26:29.165Z,19.86
2023-04-18T01:28:55.632Z,19.87
2023-04-18T01:31:22.228Z,19.88
2023-04-18T01:33:48.707Z,19.90
2023-04-18T01:36:15.263Z,19.89
2023-04-18T01:38:41.644Z,19.87
2023-04-18T01:41:08.046Z,19.87
2023-04-18T01:43:34.449Z,19.87
2023-04-18T01:46:00.951Z,19.88
2023-04-18T01:48:27.402Z,19.86
2023-04-18T01:50:53.857Z,19.87
2023-04-18T01:53:20.356Z,19.86
2023-04-18T01:55:49.238Z,19.86
2023-04-18T01:58:16.248Z,19.87
2023-04-18T02:00:43.002Z,19.88
2023-04-18T02:03:09.501Z,19.85
2023-04-18T02:05:36.220Z,19.84
2023-04-18T02:08:02.691Z,19.84
2023-04-18T02:10:29.179Z,19.84
2023-04-18T02:12:55.609Z,19.83
2023-04-18T02:15:23.597Z,19.81
2023-04-18T02:17:50.619Z,19.81
2023-04-18T02:20:17.125Z,19.82
2023-04-18T02:22:46.986Z,19.81
2023-04-18T02:25:13.590Z,19.82
2023-04-18T02:27:40.385Z,19.80
2023-04-18T02:30:07.262Z,19.79
2023-04-18T02:32:33.748Z,19.79
2023-04-18T02:35:00.246Z,19.81
2023-04-18T02:37:26.621Z,19.80
2023-04-18T02:39:53.207Z,19.79
2023-04-18T02:42:19.645Z,19.80
2023-04-18T02:44:46.031Z,19.80
2023-04-18T02:47:12.465Z,19.81
2023-04-18T02:49:38.885Z,19.80
2023-04-18T02:52:05.458Z,19.78
2023-04-18T02:54:31.876Z,19.78
2023-04-18T02:56:58.274Z,19.76
2023-04-18T02:59:24.688Z,19.75
2023-04-18T03:01:51.098Z,19.76
2023-04-18T03:04:17.623Z,19.74
2023-04-18T03:06:44.136Z,19.74
2023-04-18T03:09:10.738Z,19.74
2023-04-18T03:11:37.095Z,19.74
2023-04-18T03:14:03.534Z,19.73
2023-04-18T03:16:30.139Z,19.73
2023-04-18T03:18:56.554Z,19.72
2023-04-18T03:21:22.970Z,19.72
2023-04-18T03:23:49.628Z,19.73
2023-04-18T03:26:16.096Z,19.76
2023-04-18T03:28:42.595Z,19.77
2023-04-18T03:31:09.171Z,19.75
2023-04-18T03:33:35.715Z,19.75
2023-04-18T03:36:02.190Z,19.75
2023-04-18T03:38:28.698Z,19.73
2023-04-18T03:40:55.119Z,19.73
2023-04-18T03:43:21.547Z,19.71
2023-04-18T03:45:48.186Z,19.72
2023-04-18T03:48:14.719Z,19.72
2023-04-18T03:50:41.295Z,19.75
2023-04-18T03:53:07.778Z,19.76
2023-04-18T03:55:34.344Z,19.77
2023-04-18T03:58:01.101Z,19.77
2023-04-18T04:00:27.505Z,19.78
2023-04-18T04:02:54.205Z,19.79
2023-04-18T04:05:20.877Z,19.79
2023-04-18T04:07:47.345Z,19.79
2023-04-18T04:10:13.865Z,19.79
2023-04-18T04:12:40.499Z,19.77
2023-04-18T04:15:07.087Z,19.80
2023-04-18T04:17:33.547Z,19.80
2023-04-18T04:19:59.985Z,19.81
2023-04-18T04:22:26.801Z,19.83
2023-04-18T04:24:53.181Z,19.85
2023-04-18T04:27:20.482Z,19.85
2023-04-18T04:29:46.899Z,19.87
2023-04-18T04:32:13.671Z,19.85
2023-04-18T04:34:41.466Z,19.87
2023-04-18T04:37:08.317Z,19.87
2023-04-18T04:39:34.718Z,19.86
2023-04-18T04:42:04.555Z,19.85
2023-04-18T04:44:31.183Z,19.86
2023-04-18T04:46:57.568Z,19.85
2023-04-18T04:49:24.082Z,19.87
2023-04-18T04:51:50.615Z,19.86
2023-04-18T04:54:17.172Z,19.87
2023-04-18T04:56:43.575Z,19.88
2023-04-18T04:59:10.045Z,19.89
2023-04-18T05:01:36.888Z,19.90
2023-04-18T05:04:03.976Z,19.90
2023-04-18T05:06:30.645Z,19.93
2023-04-18T05:08:59.467Z,19.94
2023-04-18T05:11:25.933Z,19.92
2023-04-18T05:13:52.467Z,19.95
2023-04-18T05:16:18.941Z,19.96
2023-04-18T05:18:45.409Z,19.98
2023-04-18T05:21:11.866Z,19.97
2023-04-18T05:23:38.310Z,19.96
2023-04-18T05:26:05.078Z,19.95
2023-04-18T05:28:31.702Z,19.95
2023-04-18T05:31:01.330Z,19.96
2023-04-18T05:33:28.654Z,19.97
2023-04-18T05:35:55.768Z,19.96
2023-04-18T05:38:22.210Z,19.98
2023-04-18T05:40:51.061Z,19.97
2023-04-18T05:43:20.701Z,19.97
2023-04-18T05:45:47.190Z,19.98
2023-04-18T05:48:13.812Z,19.99
2023-04-18T05:50:40.571Z,20.03
2023-04-18T05:53:07.020Z,20.07
2023-04-18T05:55:34.440Z,20.15
2023-04-18T05:58:01.253Z,20.21
2023-04-18T06:00:28.311Z,20.26
2023-04-18T06:02:54.972Z,20.32
2023-04-18T06:05:21.961Z,20.30
2023-04-18T06:07:48.506Z,20.36
2023-04-18T06:10:15.803Z,20.38
2023-04-18T06:12:42.453Z,20.43
2023-04-18T06:15:09.643Z,20.45
2023-04-18T06:17:36.294Z,20.32
2023-04-18T06:20:04.081Z,20.27
2023-04-18T06:22:30.486Z,20.36
2023-04-18T06:24:57.056Z,20.49
2023-04-18T06:27:31.151Z,20.57
2023-04-18T06:29:58.509Z,20.64
2023-04-18T06:32:25.503Z,20.62
2023-04-18T06:34:53.036Z,20.47
2023-04-18T06:37:19.889Z,20.47
2023-04-18T06:39:46.504Z,20.56
2023-04-18T06:42:13.096Z,20.57
2023-04-18T06:44:39.653Z,20.61
2023-04-18T06:47:06.177Z,20.56
2023-04-18T06:49:32.589Z,20.58
2023-04-18T06:51:59.023Z,20.61
2023-04-18T06:54:25.609Z,20.66
2023-04-18T06:56:52.589Z,20.72
2023-04-18T06:59:21.391Z,20.77
2023-04-18T07:01:47.881Z,20.82
2023-04-18T07:04:14.715Z,20.86
2023-04-18T07:06:42.257Z,20.91
2023-04-18T07:09:08.822Z,20.96
2023-04-18T07:11:35.300Z,20.97
2023-04-18T07:14:01.698Z,20.97
2023-04-18T07:16:28.209Z,20.99
2023-04-18T07:18:54.612Z,21.01
2023-04-18T07:21:21.037Z,21.01
2023-04-18T07:23:47.478Z,21.04
2023-04-18T07:26:14.021Z,21.04
2023-04-18T07:28:40.644Z,21.05
2023-04-18T07:31:11.217Z,21.03
2023-04-18T07:33:38.222Z,21.01
2023-04-18T07:36:04.841Z,21.02
2023-04-18T07:38:31.342Z,20.97
2023-04-18T07:40:58.184Z,20.98
2023-04-18T07:43:24.635Z,21.02
2023-04-18T07:45:51.687Z,21.02
2023-04-18T07:48:18.325Z,20.99
2023-04-18T07:50:44.723Z,20.99
2023-04-18T07:53:11.148Z,21.00
2023-04-18T07:55:37.575Z,20.96
2023-04-18T07:58:04.045Z,20.97
2023-04-18T08:00:32.682Z,20.95
2023-04-18T08:02:59.309Z,20.95
2023-04-18T08:05:26.148Z,20.95
2023-04-18T08:07:52.903Z,20.94
2023-04-18T08:10:20.863Z,20.97
2023-04-18T08:12:48.268Z,20.99
2023-04-18T08:15:14.804Z,21.02
2023-04-18T08:17:43.884Z,21.03
2023-04-18T08:20:10.886Z,21.00
2023-04-18T08:22:46.792Z,21.00
2023-04-18T08:25:24.948Z,21.04
2023-04-18T08:27:51.489Z,20.96
2023-04-18T08:30:18.058Z,20.95
2023-04-18T08:32:44.585Z,21.03
2023-04-18T08:35:11.069Z,21.04
2023-04-18T08:37:37.514Z,20.97
2023-04-18T08:40:05.177Z,20.84
2023-04-18T08:42:31.882Z,20.70
2023-04-18T08:44:58.894Z,20.59
2023-04-18T08:47:25.838Z,20.54
2023-04-18T08:49:53.806Z,20.51
2023-04-18T08:52:21.603Z,20.44
2023-04-18T08:54:49.099Z,20.50
2023-04-18T08:57:16.748Z,20.50
2023-04-18T08:59:46.333Z,20.47
2023-04-18T09:02:15.925Z,20.45
2023-04-18T09:04:44.987Z,20.49
2023-04-18T09:07:12.391Z,20.53
2023-04-18T09:09:52.329Z,20.57
2023-04-18T09:12:22.799Z,20.61
2023-04-18T09:14:51.161Z,20.64
2023-04-18T09:17:37.859Z,20.67
2023-04-18T09:20:10.546Z,20.63
2023-04-18T09:23:03.844Z,20.66
2023-04-18T09:25:34.900Z,20.64
2023-04-18T09:28:02.252Z,20.66
2023-04-18T09:30:39.525Z,20.68
2023-04-18T09:33:09.403Z,20.69
2023-04-18T09:35:36.960Z,20.71
2023-04-18T09:38:03.448Z,20.70
2023-04-18T09:40:30.357Z,20.71
2023-04-18T09:42:57.057Z,20.71
2023-04-18T09:45:24.161Z,20.74
2023-04-18T09:47:51.096Z,20.77
2023-04-18T09:50:18.499Z,20.76
2023-04-18T09:52:45.569Z,20.76
2023-04-18T09:55:13.810Z,20.76
2023-04-18T09:57:42.416Z,20.74
2023-04-18T10:00:17.338Z,20.73
2023-04-18T10:02:56.603Z,20.73
2023-04-18T10:05:25.339Z,20.74
2023-04-18T10:07:52.946Z,20.76
2023-04-18T10:10:19.537Z,20.75
2023-04-18T10:12:48.196Z,20.77
2023-04-18T10:15:15.790Z,20.78
2023-04-18T10:18:02.856Z,20.77
2023-04-18T10:20:31.649Z,20.77
2023-04-18T10:22:58.723Z,20.79
2023-04-18T10:25:34.243Z,20.79
2023-04-18T10:28:01.594Z,20.83
2023-04-18T10:30:40.457Z,20.82
2023-04-18T10:33:31.014Z,20.83
2023-04-18T10:36:11.509Z,20.81
2023-04-18T10:38:47.577Z,20.84
2023-04-18T10:41:17.064Z,20.83
2023-04-18T10:44:02.378Z,20.84
2023-04-18T10:46:32.530Z,20.85
2023-04-18T10:49:15.256Z,20.85
2023-04-18T10:51:42.313Z,20.87
2023-04-18T10:54:10.849Z,20.86
2023-04-18T10:56:37.619Z,20.87
2023-04-18T10:59:04.905Z,20.86
2023-04-18T11:01:33.308Z,20.86
2023-04-18T11:04:00.352Z,20.88
2023-04-18T11:06:27.802Z,20.88
2023-04-18T11:09:13.779Z,20.89
2023-04-18T11:11:41.519Z,20.87
2023-04-18T11:14:08.090Z,20.87
2023-04-18T11:16:34.605Z,20.87
2023-04-18T11:19:01.075Z,20.87
2023-04-18T11:21:31.629Z,20.87
2023-04-18T11:23:58.622Z,20.88
2023-04-18T11:26:25.950Z,20.86
2023-04-18T11:28:53.116Z,20.87
2023-04-18T11:31:22.054Z,20.89
2023-04-18T11:33:48.451Z,20.91
2023-04-18T11:36:14.850Z,20.91
2023-04-18T11:38:41.989Z,20.92
2023-04-18T11:41:15.232Z,20.94
2023-04-18T11:43:46.269Z,20.91
2023-04-18T11:46:13.323Z,20.93
2023-04-18T11:48:43.529Z,20.92
2023-04-18T11:51:30.226Z,20.93
2023-04-18T11:53:56.794Z,20.93
2023-04-18T11:56:23.202Z,20.91
2023-04-18T11:58:49.749Z,20.94
2023-04-18T12:01:20.509Z,20.94
2023-04-18T12:04:06.653Z,20.94
2023-04-18T12:06:49.019Z,20.95
2023-04-18T12:09:16.330Z,20.96
2023-04-18T12:11:42.974Z,20.95
2023-04-18T12:14:19.135Z,20.97
2023-04-18T12:16:45.953Z,20.93
2023-04-18T12:19:13.951Z,20.95
2023-04-18T12:22:05.111Z,20.95
2023-04-18T12:24:32.409Z,20.96
2023-04-18T12:26:59.125Z,20.95
2023-04-18T12:29:25.850Z,20.96
2023-04-18T12:31:52.313Z,20.95
2023-04-18T12:34:18.783Z,20.97
2023-04-18T12:36:45.416Z,20.98
2023-04-18T12:39:12.099Z,20.97
2023-04-18T12:41:38.530Z,20.97
2023-04-18T12:44:05.835Z,20.98
2023-04-18T12:46:32.463Z,20.98
2023-04-18T12:48:58.922Z,20.96
2023-04-18T12:51:26.550Z,20.96
2023-04-18T12:53:52.950Z,20.97
2023-04-18T12:56:19.583Z,20.99
2023-04-18T12:58:45.963Z,20.99
2023-04-18T13:01:14.135Z,20.98
2023-04-18T13:03:41.323Z,20.99
2023-04-18T13:06:08.819Z,21.01
2023-04-18T13:08:35.364Z,21.01
2023-04-18T13:11:01.836Z,21.02
2023-04-18T13:13:28.238Z,21.01
2023-04-18T13:15:54.620Z,21.03
2023-04-18T13:18:21.627Z,21.03
2023-04-18T13:20:49.616Z,21.02
2023-04-18T13:23:16.021Z,21.01
2023-04-18T13:25:42.470Z,21.02
2023-04-18T13:28:08.937Z,21.05
2023-04-18T13:30:35.818Z,21.04
2023-04-18T13:33:02.524Z,21.05
2023-04-18T13:35:29.030Z,21.07
2023-04-18T13:37:56.000Z,21.08
2023-04-18T13:40:22.487Z,21.08
2023-04-18T13:42:48.883Z,21.09
2023-04-18T13:45:15.598Z,21.10
2023-04-18T13:47:42.144Z,21.09
2023-04-18T13:50:09.042Z,21.09
2023-04-18T13:52:36.264Z,21.08
2023-04-18T13:55:02.720Z,21.09
2023-04-18T13:57:32.085Z,21.11
2023-04-18T13:59:58.625Z,21.11
2023-04-18T14:02:25.242Z,21.11
2023-04-18T14:04:52.350Z,21.11
2023-04-18T14:07:18.900Z,21.10
2023-04-18T14:09:46.035Z,21.10
2023-04-18T14:12:12.446Z,21.10
2023-04-18T14:14:38.890Z,21.10
2023-04-18T14:17:05.313Z,21.08
2023-04-18T14:19:31.748Z,21.07
2023-04-18T14:21:58.207Z,21.09
2023-04-18T14:24:24.924Z,21.09
2023-04-18T14:26:51.362Z,21.06
2023-04-18T14:29:17.841Z,21.07
2023-04-18T14:31:44.420Z,21.04
2023-04-18T14:34:10.882Z,21.06
2023-04-18T14:36:37.345Z,21.07
2023-04-18T14:39:04.631Z,21.08
2023-04-18T14:41:31.139Z,21.08
2023-04-18T14:43:57.573Z,21.08
2023-04-18T14:46:24.087Z,21.11
2023-04-18T14:48:50.930Z,21.11
2023-04-18T14:51:17.799Z,21.09
2023-04-18T14:53:44.889Z,21.08
2023-04-18T14:56:11.339Z,21.08
2023-04-18T14:58:37.813Z,21.09
2023-04-18T15:01:04.442Z,21.10
2023-04-18T15:03:31.103Z,21.09
2023-04-18T15:05:57.755Z,21.10
2023-04-18T15:08:24.176Z,21.09
2023-04-18T15:10:50.596Z,21.08
2023-04-18T15:13:17.266Z,21.09
2023-04-18T15:15:50.889Z,21.09
2023-04-18T15:18:17.277Z,21.08
2023-04-18T15:20:43.684Z,21.08
2023-04-18T15:23:13.596Z,21.07
2023-04-18T15:25:40.625Z,21.06
2023-04-18T15:28:07.126Z,21.07
2023-04-18T15:30:33.532Z,21.06
2023-04-18T15:33:00.238Z,21.03
2023-04-18T15:35:26.761Z,21.04
2023-04-18T15:37:54.037Z,21.06
2023-04-18T15:40:20.634Z,21.06
2023-04-18T15:42:49.398Z,21.06
2023-04-18T15:45:15.923Z,21.05
2023-04-18T15:47:42.381Z,21.05
2023-04-18T15:50:09.160Z,21.06
2023-04-18T15:52:36.581Z,21.08
2023-04-18T15:55:03.800Z,21.07
2023-04-18T15:57:30.496Z,21.05
2023-04-18T15:59:58.462Z,21.05
2023-04-18T16:02:25.350Z,21.05
2023-04-18T16:04:51.932Z,21.05
2023-04-18T16:07:18.384Z,21.05
2023-04-18T16:09:44.861Z,21.04
2023-04-18T16:12:11.290Z,21.02
2023-04-18T16:14:37.701Z,21.02
2023-04-18T16:17:04.127Z,21.01
2023-04-18T16:19:30.785Z,21.02
2023-04-18T16:21:57.407Z,21.01
2023-04-18T16:24:25.543Z,21.00
2023-04-18T16:26:53.503Z,21.03
2023-04-18T16:29:19.946Z,21.02
2023-04-18T16:31:46.580Z,20.99
2023-04-18T16:34:13.692Z,20.98
2023-04-18T16:36:40.260Z,20.99
2023-04-18T16:39:06.681Z,20.98
2023-04-18T16:41:33.075Z,20.95
2023-04-18T16:43:59.497Z,20.94
2023-04-18T16:46:25.981Z,20.95
2023-04-18T16:48:52.679Z,20.93
2023-04-18T16:51:19.237Z,20.93
2023-04-18T16:53:46.729Z,20.95
2023-04-18T16:56:13.138Z,20.97
2023-04-18T16:58:39.654Z,20.97
2023-04-18T17:01:08.243Z,20.97
2023-04-18T17:03:34.815Z,20.95
2023-04-18T17:06:01.726Z,20.94
2023-04-18T17:08:28.781Z,20.93
2023-04-18T17:10:55.414Z,20.93
2023-04-18T17:13:26.747Z,20.93
2023-04-18T17:15:53.452Z,20.93
2023-04-18T17:18:19.837Z,20.94
2023-04-18T17:20:46.321Z,20.96
2023-04-18T17:23:12.792Z,20.93
2023-04-18T17:25:39.226Z,20.91
2023-04-18T17:28:05.618Z,20.91
2023-04-18T17:30:32.079Z,20.92
2023-04-18T17:32:58.542Z,20.95
2023-04-18T17:35:25.056Z,20.95
2023-04-18T17:37:52.868Z,20.95
2023-04-18T17:40:19.348Z,20.93
2023-04-18T17:42:45.735Z,20.92
2023-04-18T17:45:12.203Z,20.91
2023-04-18T17:47:38.876Z,20.92
2023-04-18T17:50:05.948Z,20.93
2023-04-18T17:52:32.584Z,20.91
2023-04-18T17:54:59.622Z,20.89
2023-04-18T17:57:26.696Z,20.88
2023-04-18T17:59:53.549Z,20.86
2023-04-18T18:02:20.350Z,20.86
2023-04-18T18:04:47.214Z,20.86
2023-04-18T18:07:13.718Z,20.86
2023-04-18T18:09:41.607Z,20.85
2023-04-18T18:12:09.740Z,20.84
2023-04-18T18:14:36.508Z,20.83
2023-04-18T18:17:03.141Z,20.83
2023-04-18T18:19:29.548Z,20.83
2023-04-18T18:21:56.028Z,20.81
2023-04-18T18:24:22.449Z,20.82
2023-04-18T18:26:50.994Z,20.81
2023-04-18T18:29:19.262Z,20.78
2023-04-18T18:31:45.907Z,20.79
2023-04-18T18:34:12.401Z,20.77
2023-04-18T18:36:39.032Z,20.75
2023-04-18T18:39:05.474Z,20.71
2023-04-18T18:41:31.888Z,20.68
2023-04-18T18:43:58.338Z,20.68
2023-04-18T18:46:25.010Z,20.66
2023-04-18T18:48:51.916Z,20.66
2023-04-18T18:51:19.108Z,20.61
2023-04-18T18:53:46.645Z,20.60
2023-04-18T18:56:13.190Z,20.61
2023-04-18T18:58:40.386Z,20.62
2023-04-18T19:01:09.215Z,20.61
2023-04-18T19:03:35.775Z,20.59
2023-04-18T19:06:04.079Z,20.59
2023-04-18T19:08:30.893Z,20.57
2023-04-18T19:10:57.353Z,20.56
2023-04-18T19:13:24.192Z,20.55
2023-04-18T19:15:51.135Z,20.53
2023-04-18T19:18:20.062Z,20.53
2023-04-18T19:20:46.571Z,20.52
2023-04-18T19:23:13.060Z,20.51
2023-04-18T19:25:39.487Z,20.48
2023-04-18T19:28:05.973Z,20.49
2023-04-18T19:30:32.574Z,20.47
2023-04-18T19:32:59.410Z,20.47
2023-04-18T19:35:25.852Z,20.45
2023-04-18T19:37:52.340Z,20.46
2023-04-18T19:40:18.852Z,20.45
2023-04-18T19:42:46.110Z,20.45
2023-04-18T19:45:15.061Z,20.42
2023-04-18T19:47:43.920Z,20.39
2023-04-18T19:50:10.976Z,20.39
2023-04-18T19:52:37.522Z,20.37
2023-04-18T19:55:04.028Z,20.36
2023-04-18T19:57:30.680Z,20.36
2023-04-18T19:59:57.061Z,20.32
2023-04-18T20:02:23.678Z,20.32
2023-04-18T20:04:50.637Z,20.30
2023-04-18T20:07:17.100Z,20.31
2023-04-18T20:09:43.502Z,20.31
2023-04-18T20:12:09.997Z,20.30
2023-04-18T20:14:36.417Z,20.32
2023-04-18T20:17:02.858Z,20.31
2023-04-18T20:19:29.606Z,20.31
2023-04-18T20:21:56.073Z,20.29
2023-04-18T20:24:23.835Z,20.29
2023-04-18T20:26:51.403Z,20.29
2023-04-18T20:29:17.856Z,20.26
2023-04-18T20:31:44.286Z,20.26
2023-04-18T20:34:11.001Z,20.27
2023-04-18T20:36:41.472Z,20.26
2023-04-18T20:39:08.598Z,20.25
2023-04-18T20:41:36.539Z,20.24
2023-04-18T20:44:06.649Z,20.22
2023-04-18T20:46:33.337Z,20.20
2023-04-18T20:48:59.915Z,20.19
2023-04-18T20:51:26.924Z,20.15
2023-04-18T20:53:53.392Z,20.13
2023-04-18T20:56:20.225Z,20.11
2023-04-18T20:58:46.887Z,20.11
2023-04-18T21:01:13.386Z,20.20
2023-04-18T21:03:39.941Z,20.23
2023-04-18T21:06:06.487Z,20.20
2023-04-18T21:08:35.203Z,20.22
2023-04-18T21:11:01.704Z,20.24
2023-04-18T21:13:28.177Z,20.29
2023-04-18T21:15:57.061Z,20.33
2023-04-18T21:18:23.817Z,20.38
2023-04-18T21:20:50.499Z,20.41
2023-04-18T21:23:16.960Z,20.40
2023-04-18T21:25:43.373Z,20.40
2023-04-18T21:28:09.778Z,20.42
2023-04-18T21:30:36.569Z,20.43
2023-04-18T21:33:03.284Z,20.42
2023-04-18T21:35:30.080Z,20.42
2023-04-18T21:37:56.803Z,20.39
2023-04-18T21:40:24.304Z,20.38
2023-04-18T21:42:53.717Z,20.37
2023-04-18T21:45:20.198Z,20.37
2023-04-18T21:47:47.001Z,20.38
2023-04-18T21:50:13.492Z,20.38
2023-04-18T21:52:39.927Z,20.36
2023-04-18T21:55:06.510Z,20.36
2023-04-18T21:57:32.946Z,20.37
2023-04-18T21:59:59.374Z,20.35
2023-04-18T22:02:26.770Z,20.37
2023-04-18T22:04:53.393Z,20.36
2023-04-18T22:07:20.137Z,20.35
2023-04-18T22:09:46.713Z,20.35
2023-04-18T22:12:16.299Z,20.36
2023-04-18T22:14:44.526Z,20.36
2023-04-18T22:17:10.939Z,20.33
2023-04-18T22:19:37.451Z,20.34
2023-04-18T22:22:03.871Z,20.35
2023-04-18T22:24:30.327Z,20.28
2023-04-18T22:26:56.822Z,20.29
2023-04-18T22:29:23.195Z,20.26
2023-04-18T22:31:49.716Z,20.27
2023-04-18T22:34:16.275Z,20.31
2023-04-18T22:36:43.931Z,20.33
2023-04-18T22:39:12.147Z,20.34
2023-04-18T22:41:38.954Z,20.30
2023-04-18T22:44:05.640Z,20.25
2023-04-18T22:46:32.993Z,20.24
2023-04-18T22:48:59.676Z,20.21
2023-04-18T22:51:28.634Z,20.17
2023-04-18T22:53:55.866Z,20.20
2023-04-18T22:56:22.272Z,20.20
2023-04-18T22:58:48.718Z,20.15
2023-04-18T23:01:15.317Z,20.11
2023-04-18T23:03:41.899Z,20.11
2023-04-18T23:06:08.573Z,20.11
2023-04-18T23:08:34.999Z,20.09
2023-04-18T23:11:01.888Z,20.09
2023-04-18T23:13:28.335Z,20.03
2023-04-18T23:15:54.767Z,20.00
2023-04-18T23:18:21.236Z,20.00
2023-04-18T23:20:47.673Z,20.00
2023-04-18T23:23:14.121Z,20.01
2023-04-18T23:25:40.960Z,20.00
2023-04-18T23:28:07.976Z,19.99
2023-04-18T23:30:35.866Z,20.00
2023-04-18T23:33:02.379Z,20.01
2023-04-18T23:35:28.787Z,20.00
2023-04-18T23:37:55.226Z,20.00
2023-04-18T23:40:21.803Z,19.99
2023-04-18T23:42:48.281Z,19.96
2023-04-18T23:45:14.739Z,19.90
2023-04-18T23:47:41.485Z,19.90
2023-04-18T23:50:08.333Z,19.91
2023-04-18T23:52:34.818Z,19.84
2023-04-18T23:55:01.570Z,19.83
2023-04-18T23:57:28.069Z,19.84
2023-04-18T23:59:54.573Z,19.83
